createdAt,value
2018-09-12T00:02:07.256Z,56.87
2018-09-12T00:04:35.005Z,56.95
2018-09-12T00:07:03.319Z,57.01
2018-09-12T00:09:32.218Z,56.95
2018-09-12T00:12:00.538Z,57.01
2018-09-12T00:14:28.859Z,57.11
2018-09-12T00:16:56.606Z,57.11
2018-09-12T00:19:25.528Z,57.19
2018-09-12T00:21:53.254Z,57.25
2018-09-12T00:24:22.153Z,57.21
2018-09-12T00:26:49.897Z,57.23
2018-09-12T00:29:18.795Z,57.32
2018-09-12T00:31:46.534Z,57.36
2018-09-12T00:34:14.950Z,57.39
2018-09-12T00:36:43.757Z,57.35
2018-09-12T00:39:12.082Z,57.38
2018-09-12T00:41:39.824Z,57.38
2018-09-12T00:44:08.730Z,57.45
2018-09-12T00:46:37.044Z,57.47
2018-09-12T00:49:05.366Z,57.47
2018-09-12T00:51:34.200Z,57.53
2018-09-12T00:54:02.516Z,57.50
2018-09-12T00:56:30.834Z,57.48
2018-09-12T00:58:58.577Z,57.56
2018-09-12T01:01:27.474Z,57.46
2018-09-12T01:03:55.805Z,57.48
2018-09-12T01:06:24.127Z,57.53
2018-09-12T01:08:52.446Z,57.43
2018-09-12T01:11:20.772Z,57.45
2018-09-12T01:13:48.529Z,57.56
2018-09-12T01:16:18.755Z,57.60
2018-09-12T01:18:47.654Z,57.49
2018-09-12T01:21:17.941Z,57.53
2018-09-12T01:23:46.261Z,57.45
2018-09-12T01:26:14.581Z,57.49
2018-09-12T01:28:42.529Z,57.46
2018-09-12T01:31:11.227Z,57.45
2018-09-12T01:33:39.554Z,57.46
2018-09-12T01:36:07.288Z,57.44
2018-09-12T01:38:36.186Z,57.40
2018-09-12T01:41:04.505Z,57.46
2018-09-12T01:43:32.837Z,57.42
2018-09-12T01:46:01.231Z,57.40
2018-09-12T01:48:29.552Z,57.41
2018-09-12T01:50:57.874Z,57.40
2018-09-12T01:53:25.768Z,57.41
2018-09-12T01:55:54.753Z,57.36
2018-09-12T01:58:23.076Z,57.35
2018-09-12T02:00:51.398Z,57.41
2018-09-12T02:03:20.221Z,57.32
2018-09-12T02:05:47.965Z,57.33
2018-09-12T02:08:16.867Z,57.36
2018-09-12T02:10:45.181Z,57.39
2018-09-12T02:13:13.508Z,57.43
2018-09-12T02:15:41.244Z,57.42
2018-09-12T02:18:10.141Z,57.36
2018-09-12T02:20:38.472Z,57.37
2018-09-12T02:23:06.376Z,57.32
2018-09-12T02:25:35.110Z,57.34
2018-09-12T02:28:03.429Z,57.33
2018-09-12T02:30:31.750Z,57.29
2018-09-12T02:32:59.488Z,57.31
2018-09-12T02:35:28.386Z,57.29
2018-09-12T02:37:56.132Z,57.33
2018-09-12T02:40:25.029Z,57.27
2018-09-12T02:42:53.354Z,57.24
2018-09-12T02:45:21.688Z,57.32
2018-09-12T02:47:49.425Z,57.30
2018-09-12T02:50:17.835Z,57.31
2018-09-12T02:52:46.733Z,57.32
2018-09-12T02:55:15.057Z,57.35
2018-09-12T02:57:43.383Z,57.36
2018-09-12T03:00:11.122Z,57.42
2018-09-12T03:02:39.445Z,57.41
2018-09-12T03:05:08.343Z,57.41
2018-09-12T03:07:36.664Z,57.43
2018-09-12T03:10:04.988Z,57.48
2018-09-12T03:12:33.310Z,57.54
2018-09-12T03:15:01.632Z,57.54
2018-09-12T03:17:29.377Z,57.43
2018-09-12T03:19:58.273Z,57.47
2018-09-12T03:22:26.590Z,57.58
2018-09-12T03:24:54.909Z,57.58
2018-09-12T03:27:22.650Z,57.59
2018-09-12T03:29:51.553Z,57.54
2018-09-12T03:32:19.874Z,57.61
2018-09-12T03:34:48.189Z,57.55
2018-09-12T03:37:16.506Z,57.56
2018-09-12T03:39:44.251Z,57.62
2018-09-12T03:42:13.157Z,57.55
2018-09-12T03:44:41.513Z,57.56
2018-09-12T03:47:10.415Z,57.61
2018-09-12T03:49:38.738Z,57.54
2018-09-12T03:52:07.065Z,57.60
2018-09-12T03:54:34.858Z,57.64
2018-09-12T03:57:03.705Z,57.64
2018-09-12T03:59:31.456Z,57.52
2018-09-12T04:02:00.359Z,57.51
2018-09-12T04:04:28.681Z,57.52
2018-09-12T04:06:57.006Z,57.34
2018-09-12T04:09:25.325Z,57.60
2018-09-12T04:11:53.642Z,57.65
2018-09-12T04:14:21.966Z,57.60
2018-09-12T04:16:53.777Z,57.63
2018-09-12T04:19:22.034Z,58.29
2018-09-12T04:21:50.358Z,58.68
2018-09-12T04:24:18.755Z,58.09
2018-09-12T04:26:46.423Z,58.33
2018-09-12T04:29:15.328Z,58.28
2018-09-12T04:31:43.069Z,58.57
2018-09-12T04:34:11.392Z,58.27
2018-09-12T04:36:40.289Z,58.34
2018-09-12T04:39:08.612Z,58.72
2018-09-12T04:41:36.933Z,58.63
2018-09-12T04:44:05.262Z,58.77
2018-09-12T04:46:33.015Z,58.51
2018-09-12T04:49:01.929Z,58.59
2018-09-12T04:51:29.688Z,58.40
2018-09-12T04:53:58.022Z,58.27
2018-09-12T04:56:26.359Z,58.43
2018-09-12T04:58:55.186Z,58.27
2018-09-12T05:01:23.602Z,58.45
2018-09-12T05:03:52.000Z,58.47
2018-09-12T05:06:20.332Z,58.38
2018-09-12T05:08:48.668Z,58.52
2018-09-12T05:11:16.996Z,58.54
2018-09-12T05:13:44.744Z,58.62
2018-09-12T05:16:13.074Z,58.60
2018-09-12T05:18:41.406Z,58.90
2018-09-12T05:21:09.737Z,58.68
2018-09-12T05:23:38.069Z,58.41
2018-09-12T05:26:06.403Z,58.65
2018-09-12T05:28:35.378Z,58.68
2018-09-12T05:31:03.654Z,58.66
2018-09-12T05:33:31.411Z,58.46
2018-09-12T05:36:00.033Z,58.61
2018-09-12T05:38:38.649Z,58.55
2018-09-12T05:41:08.572Z,58.37
2018-09-12T05:43:36.324Z,58.45
2018-09-12T05:46:05.256Z,58.58
2018-09-12T05:48:33.583Z,58.43
2018-09-12T05:51:01.339Z,58.42
2018-09-12T05:53:29.666Z,58.39
2018-09-12T05:55:58.579Z,58.38
2018-09-12T05:58:26.325Z,58.44
2018-09-12T06:00:54.668Z,58.50
2018-09-12T06:03:23.587Z,58.90
2018-09-12T06:05:51.927Z,58.64
2018-09-12T06:08:20.261Z,58.61
2018-09-12T06:10:48.641Z,58.95
2018-09-12T06:13:17.304Z,58.97
2018-09-12T06:15:45.052Z,58.94
2018-09-12T06:18:13.385Z,58.82
2018-09-12T06:20:42.296Z,59.10
2018-09-12T06:23:10.632Z,58.77
2018-09-12T06:25:38.383Z,58.76
2018-09-12T06:28:07.300Z,58.73
2018-09-12T06:30:35.638Z,58.53
2018-09-12T06:33:04.454Z,58.51
2018-09-12T06:35:32.205Z,58.46
2018-09-12T06:38:00.545Z,58.54
2018-09-12T06:40:28.880Z,58.26
2018-09-12T06:42:57.212Z,58.20
2018-09-12T06:45:25.550Z,58.40
2018-09-12T06:47:54.462Z,58.28
2018-09-12T06:50:22.214Z,58.19
2018-09-12T06:52:51.129Z,57.92
2018-09-12T06:55:19.464Z,58.16
2018-09-12T06:57:47.796Z,58.17
2018-09-12T07:00:15.550Z,57.47
2018-09-12T07:02:59.459Z,58.18
2018-09-12T07:05:27.210Z,58.19
2018-09-12T07:08:01.449Z,57.86
2018-09-12T07:10:29.191Z,58.24
2018-09-12T07:12:58.111Z,58.02
2018-09-12T07:15:26.447Z,58.12
2018-09-12T07:17:54.693Z,58.63
2018-09-12T07:20:22.529Z,58.22
2018-09-12T07:22:50.861Z,58.47
2018-09-12T07:25:19.196Z,58.35
2018-09-12T07:27:48.120Z,58.13
2018-09-12T07:30:17.061Z,57.96
2018-09-12T07:32:44.820Z,57.94
2018-09-12T07:35:13.734Z,57.81
2018-09-12T07:37:41.484Z,57.79
2018-09-12T07:40:09.818Z,57.62
2018-09-12T07:42:38.768Z,57.87
2018-09-12T07:45:07.112Z,57.87
2018-09-12T07:47:35.464Z,58.09
2018-09-12T07:50:03.789Z,57.94
2018-09-12T07:52:32.120Z,57.89
2018-09-12T07:54:59.873Z,57.80
2018-09-12T07:57:28.788Z,57.72
2018-09-12T07:59:57.174Z,57.92
2018-09-12T08:02:25.460Z,57.68
2018-09-12T08:04:53.279Z,57.75
2018-09-12T08:07:21.694Z,57.84
2018-09-12T08:09:50.474Z,57.70
2018-09-12T08:12:18.948Z,57.82
2018-09-12T08:14:46.558Z,57.84
2018-09-12T08:17:15.517Z,57.60
2018-09-12T08:19:43.245Z,57.48
2018-09-12T08:22:12.173Z,57.31
2018-09-12T08:24:40.442Z,57.50
2018-09-12T08:27:08.828Z,57.37
2018-09-12T08:29:36.586Z,57.57
2018-09-12T08:32:05.564Z,57.48
2018-09-12T08:34:33.903Z,57.46
2018-09-12T08:37:01.656Z,57.42
2018-09-12T08:39:30.576Z,57.50
2018-09-12T08:41:58.387Z,57.52
2018-09-12T08:44:27.236Z,57.73
2018-09-12T08:46:55.649Z,58.27
2018-09-12T08:49:23.325Z,58.28
2018-09-12T08:51:52.235Z,57.58
2018-09-12T08:54:20.569Z,57.24
2018-09-12T08:56:48.920Z,57.07
2018-09-12T08:59:17.240Z,57.10
2018-09-12T09:01:45.625Z,57.11
2018-09-12T09:04:26.288Z,57.39
2018-09-12T09:06:54.639Z,57.42
2018-09-12T09:09:23.050Z,57.45
2018-09-12T09:11:51.640Z,57.64
2018-09-12T09:14:20.557Z,57.62
2018-09-12T09:16:48.312Z,57.75
2018-09-12T09:19:17.221Z,57.66
2018-09-12T09:21:45.365Z,57.59
2018-09-12T09:24:13.890Z,57.71
2018-09-12T09:26:50.495Z,57.55
2018-09-12T09:29:18.245Z,57.81
2018-09-12T09:31:47.155Z,57.59
2018-09-12T09:34:14.906Z,57.61
2018-09-12T09:36:43.244Z,57.44
2018-09-12T09:39:12.164Z,57.44
2018-09-12T09:41:40.498Z,57.53
2018-09-12T09:44:08.318Z,57.55
2018-09-12T09:46:36.589Z,57.95
2018-09-12T09:49:05.060Z,57.53
2018-09-12T09:51:33.975Z,57.63
2018-09-12T09:54:01.739Z,57.66
2018-09-12T09:56:30.653Z,57.57
2018-09-12T09:58:58.989Z,57.43
2018-09-12T10:01:29.256Z,57.37
2018-09-12T10:03:57.591Z,57.37
2018-09-12T10:06:25.346Z,57.34
2018-09-12T10:08:54.257Z,57.41
2018-09-12T10:11:22.594Z,57.24
2018-09-12T10:13:50.927Z,57.38
2018-09-12T10:16:19.263Z,57.42
2018-09-12T10:18:47.603Z,57.48
2018-09-12T10:21:15.934Z,57.45
2018-09-12T10:23:43.694Z,57.26
2018-09-12T10:26:13.199Z,57.27
2018-09-12T10:28:40.992Z,57.93
2018-09-12T10:31:09.327Z,56.61
2018-09-12T10:33:38.232Z,56.57
2018-09-12T10:36:06.567Z,57.14
2018-09-12T10:38:34.417Z,56.23
2018-09-12T10:41:03.364Z,56.54
2018-09-12T10:43:31.081Z,56.93
2018-09-12T10:45:59.417Z,56.39
2018-09-12T10:48:27.755Z,56.42
2018-09-12T10:50:56.671Z,56.84
2018-09-12T10:53:24.994Z,56.61
2018-09-12T10:55:52.752Z,56.93
2018-09-12T10:58:21.674Z,56.71
2018-09-12T11:00:50.007Z,56.64
2018-09-12T11:03:17.765Z,56.58
2018-09-12T11:05:46.099Z,56.45
2018-09-12T11:08:14.432Z,57.64
2018-09-12T11:10:47.843Z,56.12
2018-09-12T11:13:16.180Z,56.20
2018-09-12T11:15:44.698Z,55.90
2018-09-12T11:18:13.491Z,56.04
2018-09-12T11:20:41.824Z,56.17
2018-09-12T11:23:09.574Z,55.93
2018-09-12T11:25:38.491Z,56.14
2018-09-12T11:28:06.828Z,59.24
2018-09-12T11:30:35.160Z,55.86
2018-09-12T11:33:03.490Z,55.70
2018-09-12T11:35:31.677Z,55.44
2018-09-12T11:38:00.710Z,56.06
2018-09-12T11:40:29.044Z,55.70
2018-09-12T11:42:57.379Z,55.49
2018-09-12T11:45:25.707Z,55.66
2018-09-12T11:47:53.462Z,55.31
2018-09-12T11:50:22.380Z,55.18
2018-09-12T11:52:50.718Z,54.83
2018-09-12T11:55:18.466Z,55.33
2018-09-12T11:57:46.815Z,54.88
2018-09-12T12:00:15.726Z,54.81
2018-09-12T12:02:44.058Z,54.69
2018-09-12T12:05:12.393Z,54.88
2018-09-12T12:07:40.144Z,55.41
2018-09-12T12:10:09.061Z,54.57
2018-09-12T12:12:36.812Z,54.48
2018-09-12T12:15:10.994Z,54.69
2018-09-12T12:17:39.870Z,54.79
2018-09-12T12:20:08.195Z,54.63
2018-09-12T12:22:35.942Z,54.61
2018-09-12T12:25:04.270Z,53.75
2018-09-12T12:27:33.267Z,53.63
2018-09-12T12:30:01.617Z,53.54
2018-09-12T12:32:29.369Z,53.83
2018-09-12T12:34:57.959Z,53.59
2018-09-12T12:37:26.629Z,53.69
2018-09-12T12:39:54.964Z,53.27
2018-09-12T12:42:22.722Z,53.31
2018-09-12T12:44:51.065Z,53.29
2018-09-12T12:47:20.352Z,55.11
2018-09-12T12:49:48.684Z,53.32
2018-09-12T12:52:17.910Z,53.32
2018-09-12T12:54:46.271Z,53.55
2018-09-12T12:57:14.608Z,53.46
2018-09-12T12:59:42.557Z,53.42
2018-09-12T13:02:11.472Z,53.46
2018-09-12T13:04:39.266Z,52.97
2018-09-12T13:07:07.701Z,52.93
2018-09-12T13:09:36.326Z,52.85
2018-09-12T13:12:04.929Z,52.93
2018-09-12T13:14:33.467Z,52.73
2018-09-12T13:17:01.741Z,52.99
2018-09-12T13:19:30.067Z,53.02
2018-09-12T13:21:58.394Z,52.72
2018-09-12T13:24:26.834Z,53.03
2018-09-12T13:26:54.581Z,53.14
2018-09-12T13:29:23.596Z,53.38
2018-09-12T13:31:51.340Z,52.91
2018-09-12T13:34:20.264Z,52.85
2018-09-12T13:36:48.583Z,52.89
2018-09-12T13:39:16.901Z,53.27
2018-09-12T13:41:45.225Z,52.86
2018-09-12T13:44:13.546Z,52.77
2018-09-12T13:46:41.399Z,52.69
2018-09-12T13:49:09.707Z,52.92
2018-09-12T13:51:38.608Z,52.60
2018-09-12T13:54:07.347Z,52.71
2018-09-12T13:56:35.617Z,52.56
2018-09-12T13:59:04.475Z,52.20
2018-09-12T14:01:32.481Z,52.67
2018-09-12T14:04:01.394Z,52.72
2018-09-12T14:06:29.724Z,52.88
2018-09-12T14:08:58.450Z,52.36
2018-09-12T14:11:26.106Z,52.49
2018-09-12T14:13:55.009Z,52.43
2018-09-12T14:16:23.326Z,52.50
2018-09-12T14:18:51.068Z,52.30
2018-09-12T14:21:19.972Z,52.03
2018-09-12T14:23:47.906Z,52.00
2018-09-12T14:26:16.816Z,51.95
2018-09-12T14:28:44.566Z,51.89
2018-09-12T14:31:13.468Z,51.73
2018-09-12T14:33:41.801Z,51.67
2018-09-12T14:36:10.286Z,51.83
2018-09-12T14:38:38.666Z,51.05
2018-09-12T14:41:06.583Z,51.16
2018-09-12T14:43:35.366Z,50.95
2018-09-12T14:46:03.691Z,51.27
2018-09-12T14:48:32.025Z,51.46
2018-09-12T14:51:00.345Z,50.99
2018-09-12T14:53:28.674Z,51.03
2018-09-12T14:55:57.019Z,51.52
2018-09-12T14:58:24.765Z,51.19
2018-09-12T15:00:53.368Z,51.70
2018-09-12T15:03:21.988Z,51.77
2018-09-12T15:05:49.732Z,51.76
2018-09-12T15:08:18.223Z,51.18
2018-09-12T15:10:46.953Z,51.45
2018-09-12T15:13:15.289Z,52.16
2018-09-12T15:15:43.604Z,52.39
2018-09-12T15:18:11.361Z,51.61
2018-09-12T15:20:40.275Z,51.89
2018-09-12T15:23:08.600Z,52.08
2018-09-12T15:25:36.932Z,51.74
2018-09-12T15:28:05.541Z,51.69
2018-09-12T15:30:33.864Z,51.48
2018-09-12T15:33:02.188Z,51.52
2018-09-12T15:35:29.938Z,51.50
2018-09-12T15:37:58.839Z,51.27
2018-09-12T15:40:27.167Z,51.26
2018-09-12T15:42:55.347Z,51.30
2018-09-12T15:45:23.808Z,51.33
2018-09-12T15:47:52.139Z,51.38
2018-09-12T15:50:20.465Z,52.11
2018-09-12T15:52:48.360Z,52.24
2018-09-12T15:55:17.121Z,52.17
2018-09-12T15:57:45.496Z,51.92
2018-09-12T16:00:13.771Z,51.49
2018-09-12T16:02:42.160Z,52.04
2018-09-12T16:05:09.861Z,52.35
2018-09-12T16:07:38.820Z,51.59
2018-09-12T16:10:06.801Z,51.41
2018-09-12T16:12:34.895Z,51.37
2018-09-12T16:15:03.807Z,51.25
2018-09-12T16:17:32.123Z,51.44
2018-09-12T16:19:59.873Z,51.75
2018-09-12T16:22:28.770Z,52.04
2018-09-12T16:24:57.006Z,52.02
2018-09-12T16:27:25.338Z,51.64
2018-09-12T16:29:54.268Z,52.02
2018-09-12T16:32:22.589Z,51.88
2018-09-12T16:34:50.921Z,51.96
2018-09-12T16:37:19.133Z,52.25
2018-09-12T16:39:48.044Z,52.35
2018-09-12T16:42:16.370Z,52.02
2018-09-12T16:44:44.693Z,53.33
2018-09-12T16:47:13.019Z,53.19
2018-09-12T16:49:41.345Z,51.34
2018-09-12T16:52:10.201Z,50.76
2018-09-12T16:54:38.520Z,51.52
2018-09-12T16:57:06.278Z,51.87
2018-09-12T16:59:35.235Z,51.48
2018-09-12T17:02:03.688Z,51.19
2018-09-12T17:04:32.102Z,51.07
2018-09-12T17:07:00.439Z,51.47
2018-09-12T17:09:28.868Z,51.39
2018-09-12T17:11:56.728Z,51.10
2018-09-12T17:14:24.952Z,51.02
2018-09-12T17:16:53.852Z,50.86
2018-09-12T17:19:22.486Z,50.75
2018-09-12T17:21:50.816Z,50.62
2018-09-12T17:24:19.154Z,50.95
2018-09-12T17:26:48.336Z,51.34
2018-09-12T17:29:16.807Z,51.39
2018-09-12T17:31:44.493Z,51.54
2018-09-12T17:34:12.825Z,51.39
2018-09-12T17:36:41.237Z,51.54
2018-09-12T17:39:10.243Z,51.58
2018-09-12T17:41:42.111Z,52.31
2018-09-12T17:44:09.864Z,51.94
2018-09-12T17:46:38.794Z,51.91
2018-09-12T17:49:07.131Z,51.87
2018-09-12T17:51:35.495Z,52.52
2018-09-12T17:54:10.072Z,52.89
2018-09-12T17:56:37.868Z,52.77
2018-09-12T17:59:06.202Z,53.04
2018-09-12T18:01:35.116Z,52.92
2018-09-12T18:04:03.583Z,52.98
2018-09-12T18:06:31.918Z,52.80
2018-09-12T18:09:00.371Z,53.09
2018-09-12T18:11:28.722Z,53.23
2018-09-12T18:13:57.243Z,52.82
2018-09-12T18:16:25.616Z,52.59
2018-09-12T18:18:53.970Z,52.86
2018-09-12T18:21:24.510Z,52.56
2018-09-12T18:23:51.592Z,52.24
2018-09-12T18:26:20.648Z,52.18
2018-09-12T18:28:48.406Z,52.36
2018-09-12T18:31:16.788Z,52.31
2018-09-12T18:33:45.707Z,52.27
2018-09-12T18:36:14.127Z,52.22
2018-09-12T18:38:42.374Z,52.19
2018-09-12T18:41:10.796Z,52.02
2018-09-12T18:43:39.148Z,52.25
2018-09-12T18:46:07.492Z,52.08
2018-09-12T18:48:35.825Z,52.06
2018-09-12T18:51:03.581Z,52.13
2018-09-12T18:53:32.511Z,52.28
2018-09-12T18:56:01.112Z,52.43
2018-09-12T18:58:29.472Z,52.76
2018-09-12T19:00:57.817Z,52.60
2018-09-12T19:03:26.874Z,52.58
2018-09-12T19:05:55.224Z,52.64
2018-09-12T19:08:23.549Z,53.02
2018-09-12T19:10:52.581Z,52.78
2018-09-12T19:13:21.011Z,52.90
2018-09-12T19:15:49.337Z,52.64
2018-09-12T19:18:18.132Z,53.58
2018-09-12T19:20:46.461Z,53.26
2018-09-12T19:23:15.745Z,51.16
2018-09-12T19:25:44.147Z,51.18
2018-09-12T19:28:12.481Z,51.12
2018-09-12T19:30:40.817Z,51.48
2018-09-12T19:33:09.152Z,51.52
2018-09-12T19:35:37.483Z,51.02
2018-09-12T19:38:05.812Z,51.38
2018-09-12T19:40:34.147Z,51.53
2018-09-12T19:43:02.490Z,51.23
2018-09-12T19:45:30.818Z,51.40
2018-09-12T19:47:58.577Z,51.66
2018-09-12T19:50:28.634Z,51.83
2018-09-12T19:52:56.994Z,52.31
2018-09-12T19:55:25.369Z,51.79
2018-09-12T19:57:53.701Z,50.95
2018-09-12T20:00:21.473Z,51.67
2018-09-12T20:02:50.397Z,50.25
2018-09-12T20:05:19.370Z,50.48
2018-09-12T20:07:47.701Z,54.98
2018-09-12T20:10:20.762Z,50.72
2018-09-12T20:12:49.129Z,51.09
2018-09-12T20:15:17.462Z,51.36
2018-09-12T20:17:46.420Z,51.11
2018-09-12T20:20:14.784Z,51.26
2018-09-12T20:22:43.134Z,51.54
2018-09-12T20:25:11.045Z,51.61
2018-09-12T20:27:39.972Z,51.61
2018-09-12T20:30:08.439Z,52.44
2018-09-12T20:32:36.749Z,51.58
2018-09-12T20:35:05.020Z,56.17
2018-09-12T20:37:33.357Z,51.63
2018-09-12T20:40:01.700Z,51.79
2018-09-12T20:42:29.556Z,52.43
2018-09-12T20:44:57.790Z,52.14
2018-09-12T20:47:26.129Z,52.25
2018-09-12T20:49:55.047Z,52.19
2018-09-12T20:52:23.383Z,52.34
2018-09-12T20:54:51.157Z,51.57
2018-09-12T20:57:21.433Z,52.66
2018-09-12T20:59:49.769Z,52.40
2018-09-12T21:02:18.691Z,52.61
2018-09-12T21:04:46.474Z,52.30
2018-09-12T21:07:15.404Z,50.08
2018-09-12T21:09:43.731Z,52.69
2018-09-12T21:12:11.610Z,51.30
2018-09-12T21:14:39.945Z,51.82
2018-09-12T21:17:08.870Z,51.80
2018-09-12T21:19:37.214Z,51.85
2018-09-12T21:22:05.555Z,51.44
2018-09-12T21:24:33.899Z,51.84
2018-09-12T21:27:01.654Z,51.39
2018-09-12T21:29:29.985Z,51.61
2018-09-12T21:31:58.325Z,51.83
2018-09-12T21:34:26.654Z,51.87
2018-09-12T21:36:55.568Z,51.60
2018-09-12T21:39:23.328Z,51.55
2018-09-12T21:41:51.669Z,51.35
2018-09-12T21:44:20.592Z,51.66
2018-09-12T21:46:48.933Z,51.44
2018-09-12T21:49:16.801Z,51.28
2018-09-12T21:51:45.719Z,51.44
2018-09-12T21:54:14.146Z,51.50
2018-09-12T21:56:42.489Z,51.66
2018-09-12T21:59:10.236Z,51.53
2018-09-12T22:01:39.470Z,51.59
2018-09-12T22:04:07.875Z,51.42
2018-09-12T22:06:35.624Z,51.57
2018-09-12T22:09:03.962Z,51.08
2018-09-12T22:11:32.300Z,51.03
2018-09-12T22:14:00.632Z,50.72
2018-09-12T22:16:28.970Z,50.23
2018-09-12T22:18:57.875Z,50.15
2018-09-12T22:21:26.208Z,50.02
2018-09-12T22:23:54.438Z,49.79
2018-09-12T22:26:22.764Z,49.84
2018-09-12T22:28:51.662Z,49.85
2018-09-12T22:31:19.409Z,49.69
2018-09-12T22:33:48.313Z,49.21
2018-09-12T22:36:16.060Z,48.85
2018-09-12T22:38:44.965Z,49.09
2018-09-12T22:41:13.284Z,49.45
2018-09-12T22:43:41.641Z,49.44
2018-09-12T22:46:09.961Z,49.19
2018-09-12T22:48:38.284Z,49.37
2018-09-12T22:51:06.115Z,49.94
2018-09-12T22:53:35.023Z,49.40
2018-09-12T22:56:03.334Z,49.64
2018-09-12T22:58:31.072Z,49.74
2018-09-12T23:00:59.405Z,49.80
2018-09-12T23:03:28.695Z,50.15
2018-09-12T23:05:56.432Z,50.11
2018-09-12T23:08:25.325Z,50.17
2018-09-12T23:10:53.074Z,50.15
2018-09-12T23:13:22.006Z,50.29
2018-09-12T23:15:50.322Z,50.13
2018-09-12T23:18:18.644Z,50.28
2018-09-12T23:20:47.463Z,50.40
2018-09-12T23:23:15.785Z,50.37
2018-09-12T23:25:44.108Z,50.32
2018-09-12T23:28:12.425Z,50.59
2018-09-12T23:30:40.745Z,50.62
2018-09-12T23:33:08.482Z,50.63
2018-09-12T23:35:37.382Z,50.68
2018-09-12T23:38:05.701Z,50.75
2018-09-12T23:40:34.021Z,50.84
2018-09-12T23:43:01.908Z,50.86
2018-09-12T23:45:30.670Z,50.85
2018-09-12T23:47:58.984Z,50.74
2018-09-12T23:50:27.307Z,50.95
2018-09-12T23:52:55.621Z,50.93
2018-09-12T23:55:23.949Z,50.99
2018-09-12T23:57:52.268Z,51.19
